• Join FlightAware (Why Join?)
  • Login
  • US Flag 
06:17PM EDT


 

Airport Tracker/Info


-or-


 

Live Flight TrackerFlight Track Log ✈ DAL975 ✈ 21-Apr-2013 ✈ KLGA - KPIT

Flight Track Log - Related Links

Times and Time Zones

All times are in EDT time to prevent confusion due to time zone crossing. See the DAL975 flight status page for this flight to view local times or setup timezone preferences in your user account.

Time Position Orientation Groundspeed Altitude Reporting Facility
EDT Latitude Longitude Course Direction KTS MPH feet Rate Location/Type
07:18PM 40.7667 -73.8500 270° West 147 169 900  Level New York TRACON
07:19PM 40.7667 -73.7833 90° East 201 231 3,500 2,040 Climbing New York TRACON
07:20PM 40.8167 -73.7500 27° Northeast 226 260 5,000 1,200 Climbing New York TRACON
07:21PM 40.7834 -74.2666 270° West  Level FlightAware Approximate
07:21PM 40.8500 -73.8333 298° West 237 273 5,900  Level New York TRACON
07:22PM 40.7834 -74.4021 270° West  Level FlightAware Approximate
07:22PM 40.8667 -73.9333 282° West 281 323 9,000  Level New York TRACON
07:23PM 40.7834 -74.5377 270° West  Level FlightAware Approximate
07:23PM 40.8667 -74.0333 270° West 293 337 12,200  Level New York TRACON
07:24PM 40.7833 -74.6732 270° West  Level FlightAware Approximate
07:24PM 40.8500 -74.1500 259° West 356 410 14,500  Level New York TRACON
07:25PM 40.8500 -74.2833 270° West 360 414 15,100 1,200 Climbing New York TRACON
07:26PM 40.8500 -74.4167 270° West 362 417 17,000 540 Climbing New York TRACON
07:29PM 40.8261 -74.7447 265° West 364 419 17,000 180 Level New York Center
07:30PM 40.8200 -74.8622 266° West 364 419 17,700 1,560 Climbing New York Center
07:31PM 40.8103 -75.0153 265° West 369 425 20,200 2,640 Climbing New York Center
07:32PM 40.8011 -75.1517 265° West 369 425 23,100 2,580 Climbing New York Center
07:33PM 40.7792 -75.2928 258° West 376 433 25,400 2,040 Climbing New York Center
07:34PM 40.7511 -75.4250 254° West 387 445 27,200 1,260 Climbing New York Center
07:35PM 40.7022 -75.5558 244° Southwest 387 445 28,000 360 Climbing New York Center
07:36PM 40.6553 -75.6839 244° Southwest 398 458 28,000  Level New York Center
07:37PM 40.6039 -75.8169 243° Southwest 403 464 28,000  Level New York Center
07:38PM 40.5522 -75.9497 243° Southwest 403 464 28,000  Level New York Center
07:39PM 40.5006 -76.0769 242° Southwest 403 464 28,000  Level New York Center
07:40PM 40.4508 -76.2094 244° Southwest 403 464 28,000  Level New York Center
07:41PM 40.4011 -76.3392 243° Southwest 403 464 28,000  Level New York Center
07:42PM 40.3533 -76.4661 244° Southwest 398 458 28,000  Level New York Center
07:43PM 40.3033 -76.5928 243° Southwest 398 458 28,000  Level New York Center
07:44PM 40.2492 -76.7186 241° Southwest 398 458 28,000  Level New York Center
07:45PM 40.1989 -76.8475 243° Southwest 398 458 28,000  Level New York Center
07:46PM 40.1483 -76.9761 243° Southwest 398 458 28,000  Level New York Center
07:47PM 40.1006 -77.0886 241° Southwest 392 451 28,000 -300 Level New York Center
07:48PM 40.0522 -77.2119 243° Southwest 392 451 27,400 -900 Descending New York Center
07:50PM 39.9572 -77.5278 249° West 393 452 25,000 -1,020 Descending Cleveland Center
07:51PM 39.9633 -77.6711 273° West 393 452 24,000 -1,020 Descending Cleveland Center
07:52PM 39.9667 -77.8119 272° West 398 458 23,000 -960 Descending Cleveland Center
07:53PM 39.9722 -77.9553 273° West 398 458 22,100 -540 Descending Cleveland Center
07:54PM 39.9775 -78.0933 273° West 398 458 22,000 -60 Descending Cleveland Center
07:55PM 39.9950 -78.2336 279° West 398 458 22,000  Level Cleveland Center
07:56PM 40.0169 -78.3928 280° West 405 466 22,000  Level Cleveland Center
07:57PM 40.0361 -78.5331 280° West 405 466 22,000  Level Cleveland Center
07:58PM 40.0553 -78.6708 280° West 405 466 22,000 -420 Level Cleveland Center
07:59PM 40.0742 -78.8114 280° West 405 466 21,200 -900 Descending Cleveland Center
08:00PM 40.0931 -78.9519 280° West 405 466 20,200 -1,020 Descending Cleveland Center
08:01PM 40.1117 -79.0928 280° West 405 466 19,200 -1,020 Descending Cleveland Center
08:02PM 40.1300 -79.2308 280° West 405 466 18,200 -1,200 Descending Cleveland Center
08:03PM 40.1503 -79.3553 282° West 396 456 16,900 -1,980 Descending Cleveland Center
08:04PM 40.1683 -79.4856 280° West 384 442 14,300 -2,580 Descending Cleveland Center
08:05PM 40.1986 -79.6100 288° West 371 427 11,800 -2,160 Descending Cleveland Center
08:06PM 40.2328 -79.7264 291° West 358 412 10,000 -840 Descending Cleveland Center
08:08PM 40.2739 -79.8753 290° West 336 387 10,000  Level FAA TRACON SMA TRACON (SMA)
08:08PM 40.2853 -79.9097 293° West 335 386 10,000 120 Level FAA TRACON SMA TRACON (SMA)
08:08PM 40.2961 -79.9428 293° West 326 375 10,100 -600 Climbing FAA TRACON SMA TRACON (SMA)
08:09PM 40.3078 -79.9778 294° West 277 319 9,600 -2,100 Descending FAA TRACON SMA TRACON (SMA)
08:09PM 40.3167 -80.0058 293° West 275 316 8,700 -2,580 Descending FAA TRACON SMA TRACON (SMA)
08:09PM 40.3267 -80.0342 295° West 277 319 7,900 -2,400 Descending FAA TRACON SMA TRACON (SMA)
08:10PM 40.3397 -80.0689 296° West 275 316 7,100 -1,980 Descending FAA TRACON SMA TRACON (SMA)
08:10PM 40.3528 -80.0925 306° West 275 316 6,600 -1,500 Descending FAA TRACON SMA TRACON (SMA)
08:10PM 40.3600 -80.1247 286° West 275 316 6,100 -900 Descending FAA TRACON SMA TRACON (SMA)
08:11PM 40.3719 -80.1603 294° West 277 319 6,000 -180 Descending FAA TRACON SMA TRACON (SMA)
08:11PM 40.3819 -80.1889 295° West 278 320 6,000  Level FAA TRACON SMA TRACON (SMA)
08:11PM 40.3919 -80.2175 295° West 278 320 6,000 -180 Level FAA TRACON SMA TRACON (SMA)
08:12PM 40.3969 -80.2511 281° West 257 296 5,900 -780 Descending FAA TRACON SMA TRACON (SMA)
08:12PM 40.3986 -80.2819 274° West 234 269 5,500 -1,200 Descending FAA TRACON SMA TRACON (SMA)
08:12PM 40.4003 -80.3083 275° West 229 264 5,100 -1,080 Descending FAA TRACON SMA TRACON (SMA)
08:13PM 40.4017 -80.3364 274° West 221 254 4,800 -1,200 Descending FAA TRACON SMA TRACON (SMA)
08:13PM 40.4028 -80.3628 273° West 206 237 4,300 -2,040 Descending FAA TRACON SMA TRACON (SMA)
08:13PM 40.4117 -80.3819 301° West 217 250 3,500 -1,800 Descending FAA TRACON SMA TRACON (SMA)
08:14PM 40.4278 -80.3878 345° North 201 231 3,100 -780 Descending FAA TRACON SMA TRACON (SMA)
08:14PM 40.4475 -80.3867 North 185 213 3,000 -180 Descending FAA TRACON SMA TRACON (SMA)
08:14PM 40.4633 -80.3856 North 179 206 3,000  Level FAA TRACON SMA TRACON (SMA)